APL Cairo — S6HU3 — position and weather

sailwx.info

Track history (hours):
 
Tides and Currents Weather Stations Pressure Air Temp Water Temp Dewpoint Dewpoint Depression Visibility Wind Speed Wind Dir Waves Ship Positions

APL Cairo

Last reported at 2018-Apr-14 23:07 UTC. Time now 2018-Apr-21 13:47 UTC.
Position N 33°33' E 134°37'.

Length 207 m; draft 9.2 m.

Type: Cargo ship. MMSI: 563266000.

Date/timePositionNaut miles runAvg speedWind from/ knotsBaromVisibWave heightAir tempDewpointWater temp
2018-Apr-14 23:07N 33°33' E 134°37'317.4
2018-Apr-14 22:56N 33°35' E 134°40'817.2
2018-Apr-14 22:29N 33°41' E 134°46'817.5
2018-Apr-14 22:00N 33°48' E 134°52'918.2
2018-Apr-14 21:30N 33°57' E 134°54'1019.3
2018-Apr-14 21:00N 34°06' E 134°56'918.6
2018-Apr-14 20:30N 34°15' E 134°58'612.9
2018-Apr-14 20:00N 34°22' E 134°59'815.2
2018-Apr-14 19:30N 34°27' E 135°06'917.2
2018-Apr-14 19:00N 34°33' E 135°13'714.1
2018-Apr-14 18:30N 34°39' E 135°15'1 2.3
2018-Apr-14 18:00N 34°40' E 135°14'0 0.0
2018-Apr-14 17:30N 34°40' E 135°14'0 0.0
2018-Apr-14 17:00N 34°40' E 135°14'0 0.0
2018-Apr-14 16:30N 34°40' E 135°14'0 0.0
2018-Apr-14 16:00N 34°40' E 135°14'0 0.0
2018-Apr-14 15:30N 34°40' E 135°14'0 0.0
2018-Apr-14 15:00N 34°40' E 135°14'0 0.0
2018-Apr-14 14:30N 34°40' E 135°14'0 0.0
2018-Apr-14 14:00N 34°40' E 135°14'0 0.0
2018-Apr-14 13:30N 34°40' E 135°14'0 0.0
2018-Apr-14 13:00N 34°40' E 135°14'0 0.0
2018-Apr-14 12:30N 34°40' E 135°14'0 0.0
2018-Apr-14 11:59N 34°40' E 135°14'0 0.0
2018-Apr-14 11:30N 34°40' E 135°14'0 0.0
2018-Apr-14 11:00N 34°40' E 135°14'0 0.0
2018-Apr-14 10:30N 34°40' E 135°14'0 0.0
2018-Apr-14 10:00N 34°40' E 135°14'0 0.0
2018-Apr-14 09:30N 34°40' E 135°14'0 0.0
2018-Apr-14 09:00N 34°40' E 135°14'0 0.0
2018-Apr-14 08:30N 34°40' E 135°14'0 0.0
2018-Apr-14 08:00N 34°40' E 135°14'0 0.0
2018-Apr-14 07:30N 34°40' E 135°14'0 0.0
2018-Apr-14 07:00N 34°40' E 135°14'0 0.0
2018-Apr-14 06:30N 34°40' E 135°14'0 0.0
2018-Apr-14 06:00N 34°40' E 135°14'0 0.0
2018-Apr-14 05:30N 34°40' E 135°14'0 0.0
2018-Apr-14 05:00N 34°40' E 135°14'0 0.0
2018-Apr-14 04:30N 34°40' E 135°14'0 0.1
2018-Apr-14 04:00N 34°40' E 135°14'3 5.6
2018-Apr-14 03:30N 34°38' E 135°17'4 7.7
2018-Apr-14 03:00N 34°34' E 135°17'714.8
2018-Apr-14 02:30N 34°29' E 135°10'917.1
2018-Apr-14 02:00N 34°23' E 135°03'816.5
2018-Apr-14 01:31N 34°15' E 134°59'713.1
2018-Apr-14 01:00N 34°09' E 134°59'714.4
2018-Apr-14 00:31N 34°02' E 134°60'713.5
2018-Apr-14 00:01N 33°55' E 134°59'612.6
2018-Apr-13 23:30N 33°49' E 135°01'713.1
2018-Apr-13 23:01N 33°44' E 135°06'7610.7
2018-Apr-13 15:55N 33°55' E 136°36'614.2
2018-Apr-13 15:28N 33°59' E 136°42'714.2
2018-Apr-13 15:00N 34°03' E 136°48'1613.5
2018-Apr-13 13:50N 34°15' E 137°01'513.2
2018-Apr-13 13:29N 34°19' E 137°02'713.8
2018-Apr-13 13:00N 34°26' E 137°03'714.0
2018-Apr-13 12:30N 34°33' E 137°01'815.0
2018-Apr-13 12:00N 34°38' E 136°54'1716.9
2018-Apr-13 11:00N 34°53' E 136°46'816.0
2018-Apr-13 10:30N 35°00' E 136°50'1 2.6
2018-Apr-13 10:01N 35°02' E 136°49'0 0.0
2018-Apr-13 09:30N 35°02' E 136°49'0 0.0
2018-Apr-13 09:00N 35°02' E 136°49'0 0.0
2018-Apr-13 08:30N 35°02' E 136°49'0 0.0
2018-Apr-13 08:00N 35°02' E 136°49'0 0.0
2018-Apr-13 07:31N 35°02' E 136°49'0 0.0
2018-Apr-13 07:00N 35°02' E 136°49'0 0.0
2018-Apr-13 06:30N 35°02' E 136°49'0 0.0
2018-Apr-13 06:01N 35°02' E 136°49'0 0.0
2018-Apr-13 05:31N 35°02' E 136°49'0 0.0
2018-Apr-13 05:01N 35°02' E 136°49'0 0.0
2018-Apr-13 04:31N 35°02' E 136°49'0 0.1
2018-Apr-13 04:01N 35°02' E 136°50'0 0.0
2018-Apr-13 03:31N 35°02' E 136°50'0 0.0
2018-Apr-13 03:00N 35°02' E 136°50'0 0.1
2018-Apr-13 02:30N 35°02' E 136°49'0 0.1
2018-Apr-13 02:00N 35°02' E 136°50'2 3.9
2018-Apr-13 01:31N 35°00' E 136°48'5 9.8
2018-Apr-13 01:01N 34°56' E 136°46'612.1
2018-Apr-13 00:30N 34°50' E 136°46'714.2
2018-Apr-12 23:59N 34°43' E 136°50'1015.2
2018-Apr-12 23:19N 34°35' E 136°58'1310.7
2018-Apr-12 22:06N 34°29' E 137°12'111.6
2018-Apr-12 22:00N 34°29' E 137°13'911.6
2018-Apr-12 21:15N 34°28' E 137°24'311.7
2018-Apr-12 20:59N 34°28' E 137°28'812.4
2018-Apr-12 20:19N 34°29' E 137°38'412.3
2018-Apr-12 19:59N 34°29' E 137°43'612.1
2018-Apr-12 19:30N 34°29' E 137°50'612.0
2018-Apr-12 19:00N 34°29' E 137°57'612.2
2018-Apr-12 18:29N 34°29' E 138°05'612.2
2018-Apr-12 17:59N 34°30' E 138°12'712.3
2018-Apr-12 17:25N 34°30' E 138°20'512.7
2018-Apr-12 17:00N 34°30' E 138°27'612.4
2018-Apr-12 16:30N 34°30' E 138°34'612.5
2018-Apr-12 16:00N 34°31' E 138°42'612.4
2018-Apr-12 15:30N 34°31' E 138°49'612.3
2018-Apr-12 15:00N 34°32' E 138°57'813.2
2018-Apr-12 14:25N 34°37' E 139°04'614.5
2018-Apr-12 13:59N 34°42' E 139°09'715.4
2018-Apr-12 13:30N 34°47' E 139°15'714.2
2018-Apr-12 13:00N 34°52' E 139°21'713.8
2018-Apr-12 12:30N 34°56' E 139°28'611.9
2018-Apr-12 12:01N 34°59' E 139°34'612.6
2018-Apr-12 11:31N 35°03' E 139°40'612.6
2018-Apr-12 11:00N 35°08' E 139°45'510.8
2018-Apr-12 10:30N 35°14' E 139°46'612.0
2018-Apr-12 10:00N 35°19' E 139°43'612.0
2018-Apr-12 09:31N 35°25' E 139°43'2 3.6
2018-Apr-12 09:00N 35°26' E 139°41'0 0.0
2018-Apr-12 08:30N 35°26' E 139°41'0 0.0
2018-Apr-12 08:00N 35°26' E 139°41'0 0.0
2018-Apr-12 07:30N 35°26' E 139°41'0 0.0
2018-Apr-12 07:00N 35°26' E 139°41'0 0.0
2018-Apr-12 06:30N 35°26' E 139°41'0 0.0
2018-Apr-12 06:00N 35°26' E 139°41'0 0.0
2018-Apr-12 05:30N 35°26' E 139°41'0 0.0
2018-Apr-12 05:00N 35°26' E 139°41'0 0.0
2018-Apr-12 04:30N 35°26' E 139°41'0 0.0
2018-Apr-12 04:00N 35°26' E 139°41'0 0.0
2018-Apr-12 03:31N 35°26' E 139°41'0 0.0
2018-Apr-12 03:00N 35°26' E 139°41'0 0.0
2018-Apr-12 02:30N 35°26' E 139°41'0 0.0
2018-Apr-12 02:00N 35°26' E 139°41'0 0.0
2018-Apr-12 01:30N 35°26' E 139°41'0 0.0
2018-Apr-12 01:00N 35°26' E 139°41'0 0.0
2018-Apr-12 00:30N 35°26' E 139°41'0 0.1
2018-Apr-12 00:00N 35°26' E 139°41'0 0.1
2018-Apr-11 23:30N 35°26' E 139°41'0 0.0
2018-Apr-11 23:00N 35°26' E 139°41'0 0.0
2018-Apr-11 22:30N 35°26' E 139°41'0 0.0
2018-Apr-11 22:00N 35°26' E 139°41'0 0.0
2018-Apr-11 21:30N 35°26' E 139°41'0 0.0
2018-Apr-11 21:00N 35°26' E 139°41'0 0.0
2018-Apr-11 20:30N 35°26' E 139°41'0 0.0
2018-Apr-11 20:00N 35°26' E 139°41'0 0.0
2018-Apr-11 19:30N 35°26' E 139°41'0 0.0
2018-Apr-11 19:00N 35°26' E 139°41'0 0.0
2018-Apr-11 18:30N 35°26' E 139°41'0 0.0
2018-Apr-11 18:00N 35°26' E 139°41'0 0.0
2018-Apr-11 17:30N 35°26' E 139°41'0 0.0
2018-Apr-11 17:00N 35°26' E 139°41'0 0.0
2018-Apr-11 16:30N 35°26' E 139°41'0 0.0
2018-Apr-11 16:00N 35°26' E 139°41'0 0.0
2018-Apr-11 15:30N 35°26' E 139°41'0 0.0
2018-Apr-11 15:00N 35°26' E 139°41'0 0.0
2018-Apr-11 14:30N 35°26' E 139°41'0 0.0
2018-Apr-11 14:00N 35°26' E 139°41'0 0.0
2018-Apr-11 13:30N 35°26' E 139°41'0 0.0
2018-Apr-11 13:00N 35°26' E 139°41'0 0.0
2018-Apr-11 12:30N 35°26' E 139°41'0 0.0
2018-Apr-11 12:00N 35°26' E 139°41'0 0.0
2018-Apr-11 11:30N 35°26' E 139°41'0 0.0
2018-Apr-11 11:00N 35°26' E 139°41'0 0.0
2018-Apr-11 10:30N 35°26' E 139°41'0 0.0
2018-Apr-11 10:00N 35°26' E 139°41'0 0.0
2018-Apr-11 09:30N 35°26' E 139°41'0 0.0
2018-Apr-11 09:00N 35°26' E 139°41'0 0.0
2018-Apr-11 08:30N 35°26' E 139°41'0 0.0
2018-Apr-11 08:00N 35°26' E 139°41'0 0.0
2018-Apr-11 07:30N 35°26' E 139°41'0 0.0
2018-Apr-11 07:00N 35°26' E 139°41'0 0.0
2018-Apr-11 06:30N 35°26' E 139°41'0 0.0
2018-Apr-11 06:00N 35°26' E 139°41'0 0.0
2018-Apr-11 05:30N 35°26' E 139°41'0 0.0
2018-Apr-11 05:00N 35°26' E 139°41'0 0.0
2018-Apr-11 04:30N 35°26' E 139°41'0 0.2
2018-Apr-11 04:00N 35°26' E 139°41'2 4.2
2018-Apr-11 03:30N 35°27' E 139°44'1 2.3
2018-Apr-11 03:00N 35°27' E 139°45'0 0.1
2018-Apr-11 02:30N 35°27' E 139°45'0 0.0
2018-Apr-11 02:00N 35°27' E 139°45'0 0.1
2018-Apr-11 01:30N 35°27' E 139°45'0 0.1
2018-Apr-11 01:00N 35°27' E 139°45'0 0.0
2018-Apr-11 00:30N 35°27' E 139°45'0 0.0
2018-Apr-11 00:00N 35°27' E 139°45'0 0.0
2018-Apr-10 23:30N 35°27' E 139°45'0 0.1
2018-Apr-10 23:00N 35°27' E 139°45'0 0.1
2018-Apr-10 22:30N 35°27' E 139°45'1 1.4
2018-Apr-10 22:00N 35°27' E 139°46'4 7.4
2018-Apr-10 21:30N 35°29' E 139°50'5 9.6
2018-Apr-10 21:00N 35°34' E 139°49'3 6.6
2018-Apr-10 20:30N 35°36' E 139°47'0 0.4
2018-Apr-10 20:00N 35°36' E 139°47'0 0.0
2018-Apr-10 19:30N 35°36' E 139°47'0 0.0
2018-Apr-10 19:00N 35°36' E 139°47'0 0.0
2018-Apr-10 18:30N 35°36' E 139°47'0 0.0
2018-Apr-10 18:00N 35°36' E 139°47'0 0.0
2018-Apr-10 17:30N 35°36' E 139°47'0 0.0
2018-Apr-10 17:00N 35°36' E 139°47'0 0.0
2018-Apr-10 16:30N 35°36' E 139°47'0 0.0
2018-Apr-10 16:00N 35°36' E 139°47'0 0.0
2018-Apr-10 15:30N 35°36' E 139°47'0 0.0
2018-Apr-10 15:00N 35°36' E 139°47'0 0.0
2018-Apr-10 14:30N 35°36' E 139°47'0 0.0
2018-Apr-10 14:00N 35°36' E 139°47'0 0.0
2018-Apr-10 13:30N 35°36' E 139°47'0 0.0
2018-Apr-10 13:00N 35°36' E 139°47'0 0.0
2018-Apr-10 12:30N 35°36' E 139°47'0 0.0
2018-Apr-10 12:00N 35°36' E 139°47'0 0.0
2018-Apr-10 11:30N 35°36' E 139°47'0 0.0
2018-Apr-10 11:00N 35°36' E 139°47'0 0.0
2018-Apr-10 10:30N 35°36' E 139°47'0 0.0
2018-Apr-10 10:00N 35°36' E 139°47'0 0.0
2018-Apr-10 09:30N 35°36' E 139°47'0 0.0
2018-Apr-10 09:00N 35°36' E 139°47'0 0.0
2018-Apr-10 08:30N 35°36' E 139°47'0 0.0
2018-Apr-10 08:00N 35°36' E 139°47'0 0.0
2018-Apr-10 07:30N 35°36' E 139°47'0 0.0
2018-Apr-10 07:00N 35°36' E 139°47'0 0.0
2018-Apr-10 06:30N 35°36' E 139°47'0 0.0
2018-Apr-10 06:00N 35°36' E 139°47'0 0.0
2018-Apr-10 05:30N 35°36' E 139°47'0 0.0
2018-Apr-10 05:00N 35°36' E 139°47'0 0.0
2018-Apr-10 04:30N 35°36' E 139°47'0 0.0
2018-Apr-10 04:00N 35°36' E 139°47'0 0.0
2018-Apr-10 03:30N 35°36' E 139°47'0 0.0
2018-Apr-10 03:00N 35°36' E 139°47'0 0.0
2018-Apr-10 02:29N 35°36' E 139°47'0 0.0
2018-Apr-10 02:00N 35°36' E 139°47'0 0.0
2018-Apr-10 01:30N 35°36' E 139°47'0 0.0
2018-Apr-10 01:00N 35°36' E 139°47'0 0.0
2018-Apr-10 00:30N 35°36' E 139°47'0 0.0
2018-Apr-10 00:00N 35°36' E 139°47'0 0.0
2018-Apr-09 23:30N 35°36' E 139°47'0 0.0
2018-Apr-09 23:00N 35°36' E 139°47'0 0.1
2018-Apr-09 22:30N 35°36' E 139°47'2 3.4
2018-Apr-09 22:00N 35°35' E 139°48'510.7
2018-Apr-09 21:31N 35°31' E 139°53'510.9
2018-Apr-09 21:00N 35°26' E 139°49'612.6
2018-Apr-09 20:30N 35°21' E 139°45'510.5
2018-Apr-09 20:00N 35°16' E 139°46'611.6
2018-Apr-09 19:30N 35°10' E 139°47'3 6.4
2018-Apr-09 19:00N 35°07' E 139°46'3 6.3
2018-Apr-09 18:31N 35°04' E 139°44'4 7.6
2018-Apr-09 18:01N 35°02' E 139°40'4 8.1
2018-Apr-09 17:30N 34°59' E 139°36'4 7.4
2018-Apr-09 17:00N 34°57' E 139°33'4 8.4
2018-Apr-09 16:30N 34°54' E 139°29'4 7.9
2018-Apr-09 15:59N 34°52' E 139°25'4 8.7
2018-Apr-09 15:30N 34°50' E 139°20'5 9.9
2018-Apr-09 15:00N 34°46' E 139°17'710.8
2018-Apr-09 14:20N 34°40' E 139°11'411.6
2018-Apr-09 14:00N 34°37' E 139°08'612.9
2018-Apr-09 13:30N 34°33' E 139°03'612.8
2018-Apr-09 13:00N 34°29' E 138°57'612.3
2018-Apr-09 12:30N 34°25' E 138°51'612.3
2018-Apr-09 12:00N 34°22' E 138°45'612.8
2018-Apr-09 11:30N 34°19' E 138°38'712.6
2018-Apr-09 10:57N 34°16' E 138°30'612.6
2018-Apr-09 10:30N 34°13' E 138°24'711.9
2018-Apr-09 09:57N 34°10' E 138°17'611.3
2018-Apr-09 09:24N 34°07' E 138°11'511.2
2018-Apr-09 08:56N 34°05' E 138°05'92418.2
2018-Apr-07 06:06N 25°16' E 123°34'217.6
2018-Apr-07 06:00N 25°14' E 123°33'917.5
2018-Apr-07 05:31N 25°08' E 123°26'917.3
2018-Apr-07 05:00N 25°02' E 123°19'917.5
2018-Apr-07 04:31N 24°56' E 123°12'917.3
2018-Apr-07 04:00N 24°49' E 123°06'917.5
2018-Apr-07 03:31N 24°43' E 122°59'917.9
2018-Apr-07 03:01N 24°37' E 122°52'917.4
2018-Apr-07 02:30N 24°30' E 122°46'816.7
2018-Apr-07 02:00N 24°24' E 122°39'816.9
2018-Apr-07 01:31N 24°19' E 122°32'817.0
2018-Apr-07 01:01N 24°12' E 122°26'816.6
2018-Apr-07 00:31N 24°06' E 122°20'916.9
2018-Apr-07 00:00N 23°60' E 122°14'4813.5
2018-Apr-06 20:25N 23°17' E 121°49'713.3
2018-Apr-06 19:52N 23°13' E 121°42'3510.4
2018-Apr-06 16:29N 22°43' E 121°22'911.9
2018-Apr-06 15:44N 22°35' E 121°18'415.4
2018-Apr-06 15:28N 22°31' E 121°17'2217.2
2018-Apr-06 14:11N 22°10' E 121°10'517.9
2018-Apr-06 13:54N 22°05' E 121°09'  
Track history (hours):
 
Tides and Currents Weather Stations Pressure Air Temp Water Temp Dewpoint Dewpoint Depression Visibility Wind Speed Wind Dir Waves Ship Positions

APL Cairo

Last reported at 2018-Apr-14 23:07 UTC. Time now 2018-Apr-21 13:47 UTC.
Position N 33°33' E 134°37'.

Length 207 m; draft 9.2 m.

Type: Cargo ship. MMSI: 563266000.

Date/timePositionNaut miles runAvg speedWind from/ knotsBaromVisibWave heightAir tempDewpointWater temp
2018-Apr-14 23:07N 33°33' E 134°37'317.4
2018-Apr-14 22:56N 33°35' E 134°40'817.2
2018-Apr-14 22:29N 33°41' E 134°46'817.5
2018-Apr-14 22:00N 33°48' E 134°52'918.2
2018-Apr-14 21:30N 33°57' E 134°54'1019.3
2018-Apr-14 21:00N 34°06' E 134°56'918.6
2018-Apr-14 20:30N 34°15' E 134°58'612.9
2018-Apr-14 20:00N 34°22' E 134°59'815.2
2018-Apr-14 19:30N 34°27' E 135°06'917.2
2018-Apr-14 19:00N 34°33' E 135°13'714.1
2018-Apr-14 18:30N 34°39' E 135°15'1 2.3
2018-Apr-14 18:00N 34°40' E 135°14'0 0.0
2018-Apr-14 17:30N 34°40' E 135°14'0 0.0
2018-Apr-14 17:00N 34°40' E 135°14'0 0.0
2018-Apr-14 16:30N 34°40' E 135°14'0 0.0
2018-Apr-14 16:00N 34°40' E 135°14'0 0.0
2018-Apr-14 15:30N 34°40' E 135°14'0 0.0
2018-Apr-14 15:00N 34°40' E 135°14'0 0.0
2018-Apr-14 14:30N 34°40' E 135°14'0 0.0
2018-Apr-14 14:00N 34°40' E 135°14'0 0.0
2018-Apr-14 13:30N 34°40' E 135°14'0 0.0
2018-Apr-14 13:00N 34°40' E 135°14'0 0.0
2018-Apr-14 12:30N 34°40' E 135°14'0 0.0
2018-Apr-14 11:59N 34°40' E 135°14'0 0.0
2018-Apr-14 11:30N 34°40' E 135°14'0 0.0
2018-Apr-14 11:00N 34°40' E 135°14'0 0.0
2018-Apr-14 10:30N 34°40' E 135°14'0 0.0
2018-Apr-14 10:00N 34°40' E 135°14'0 0.0
2018-Apr-14 09:30N 34°40' E 135°14'0 0.0
2018-Apr-14 09:00N 34°40' E 135°14'0 0.0
2018-Apr-14 08:30N 34°40' E 135°14'0 0.0
2018-Apr-14 08:00N 34°40' E 135°14'0 0.0
2018-Apr-14 07:30N 34°40' E 135°14'0 0.0
2018-Apr-14 07:00N 34°40' E 135°14'0 0.0
2018-Apr-14 06:30N 34°40' E 135°14'0 0.0
2018-Apr-14 06:00N 34°40' E 135°14'0 0.0
2018-Apr-14 05:30N 34°40' E 135°14'0 0.0
2018-Apr-14 05:00N 34°40' E 135°14'0 0.0
2018-Apr-14 04:30N 34°40' E 135°14'0 0.1
2018-Apr-14 04:00N 34°40' E 135°14'3 5.6
2018-Apr-14 03:30N 34°38' E 135°17'4 7.7
2018-Apr-14 03:00N 34°34' E 135°17'714.8
2018-Apr-14 02:30N 34°29' E 135°10'917.1
2018-Apr-14 02:00N 34°23' E 135°03'816.5
2018-Apr-14 01:31N 34°15' E 134°59'713.1
2018-Apr-14 01:00N 34°09' E 134°59'714.4
2018-Apr-14 00:31N 34°02' E 134°60'713.5
2018-Apr-14 00:01N 33°55' E 134°59'612.6
2018-Apr-13 23:30N 33°49' E 135°01'713.1
2018-Apr-13 23:01N 33°44' E 135°06'7610.7
2018-Apr-13 15:55N 33°55' E 136°36'614.2
2018-Apr-13 15:28N 33°59' E 136°42'714.2
2018-Apr-13 15:00N 34°03' E 136°48'1613.5
2018-Apr-13 13:50N 34°15' E 137°01'513.2
2018-Apr-13 13:29N 34°19' E 137°02'713.8
2018-Apr-13 13:00N 34°26' E 137°03'714.0
2018-Apr-13 12:30N 34°33' E 137°01'815.0
2018-Apr-13 12:00N 34°38' E 136°54'1716.9
2018-Apr-13 11:00N 34°53' E 136°46'816.0
2018-Apr-13 10:30N 35°00' E 136°50'1 2.6
2018-Apr-13 10:01N 35°02' E 136°49'0 0.0
2018-Apr-13 09:30N 35°02' E 136°49'0 0.0
2018-Apr-13 09:00N 35°02' E 136°49'0 0.0
2018-Apr-13 08:30N 35°02' E 136°49'0 0.0
2018-Apr-13 08:00N 35°02' E 136°49'0 0.0
2018-Apr-13 07:31N 35°02' E 136°49'0 0.0
2018-Apr-13 07:00N 35°02' E 136°49'0 0.0
2018-Apr-13 06:30N 35°02' E 136°49'0 0.0
2018-Apr-13 06:01N 35°02' E 136°49'0 0.0
2018-Apr-13 05:31N 35°02' E 136°49'0 0.0
2018-Apr-13 05:01N 35°02' E 136°49'0 0.0
2018-Apr-13 04:31N 35°02' E 136°49'0 0.1
2018-Apr-13 04:01N 35°02' E 136°50'0 0.0
2018-Apr-13 03:31N 35°02' E 136°50'0 0.0
2018-Apr-13 03:00N 35°02' E 136°50'0 0.1
2018-Apr-13 02:30N 35°02' E 136°49'0 0.1
2018-Apr-13 02:00N 35°02' E 136°50'2 3.9
2018-Apr-13 01:31N 35°00' E 136°48'5 9.8
2018-Apr-13 01:01N 34°56' E 136°46'612.1
2018-Apr-13 00:30N 34°50' E 136°46'714.2
2018-Apr-12 23:59N 34°43' E 136°50'1015.2
2018-Apr-12 23:19N 34°35' E 136°58'1310.7
2018-Apr-12 22:06N 34°29' E 137°12'111.6
2018-Apr-12 22:00N 34°29' E 137°13'911.6
2018-Apr-12 21:15N 34°28' E 137°24'311.7
2018-Apr-12 20:59N 34°28' E 137°28'812.4
2018-Apr-12 20:19N 34°29' E 137°38'412.3
2018-Apr-12 19:59N 34°29' E 137°43'612.1
2018-Apr-12 19:30N 34°29' E 137°50'612.0
2018-Apr-12 19:00N 34°29' E 137°57'612.2
2018-Apr-12 18:29N 34°29' E 138°05'612.2
2018-Apr-12 17:59N 34°30' E 138°12'712.3
2018-Apr-12 17:25N 34°30' E 138°20'512.7
2018-Apr-12 17:00N 34°30' E 138°27'612.4
2018-Apr-12 16:30N 34°30' E 138°34'612.5
2018-Apr-12 16:00N 34°31' E 138°42'612.4
2018-Apr-12 15:30N 34°31' E 138°49'612.3
2018-Apr-12 15:00N 34°32' E 138°57'813.2
2018-Apr-12 14:25N 34°37' E 139°04'614.5
2018-Apr-12 13:59N 34°42' E 139°09'715.4
2018-Apr-12 13:30N 34°47' E 139°15'714.2
2018-Apr-12 13:00N 34°52' E 139°21'713.8
2018-Apr-12 12:30N 34°56' E 139°28'611.9
2018-Apr-12 12:01N 34°59' E 139°34'612.6
2018-Apr-12 11:31N 35°03' E 139°40'612.6
2018-Apr-12 11:00N 35°08' E 139°45'510.8
2018-Apr-12 10:30N 35°14' E 139°46'612.0
2018-Apr-12 10:00N 35°19' E 139°43'612.0
2018-Apr-12 09:31N 35°25' E 139°43'2 3.6
2018-Apr-12 09:00N 35°26' E 139°41'0 0.0
2018-Apr-12 08:30N 35°26' E 139°41'0 0.0
2018-Apr-12 08:00N 35°26' E 139°41'0 0.0
2018-Apr-12 07:30N 35°26' E 139°41'0 0.0
2018-Apr-12 07:00N 35°26' E 139°41'0 0.0
2018-Apr-12 06:30N 35°26' E 139°41'0 0.0
2018-Apr-12 06:00N 35°26' E 139°41'0 0.0
2018-Apr-12 05:30N 35°26' E 139°41'0 0.0
2018-Apr-12 05:00N 35°26' E 139°41'0 0.0
2018-Apr-12 04:30N 35°26' E 139°41'0 0.0
2018-Apr-12 04:00N 35°26' E 139°41'0 0.0
2018-Apr-12 03:31N 35°26' E 139°41'0 0.0
2018-Apr-12 03:00N 35°26' E 139°41'0 0.0
2018-Apr-12 02:30N 35°26' E 139°41'0 0.0
2018-Apr-12 02:00N 35°26' E 139°41'0 0.0
2018-Apr-12 01:30N 35°26' E 139°41'0 0.0
2018-Apr-12 01:00N 35°26' E 139°41'0 0.0
2018-Apr-12 00:30N 35°26' E 139°41'0 0.1
2018-Apr-12 00:00N 35°26' E 139°41'0 0.1
2018-Apr-11 23:30N 35°26' E 139°41'0 0.0
2018-Apr-11 23:00N 35°26' E 139°41'0 0.0
2018-Apr-11 22:30N 35°26' E 139°41'0 0.0
2018-Apr-11 22:00N 35°26' E 139°41'0 0.0
2018-Apr-11 21:30N 35°26' E 139°41'0 0.0
2018-Apr-11 21:00N 35°26' E 139°41'0 0.0
2018-Apr-11 20:30N 35°26' E 139°41'0 0.0
2018-Apr-11 20:00N 35°26' E 139°41'0 0.0
2018-Apr-11 19:30N 35°26' E 139°41'0 0.0
2018-Apr-11 19:00N 35°26' E 139°41'0 0.0
2018-Apr-11 18:30N 35°26' E 139°41'0 0.0
2018-Apr-11 18:00N 35°26' E 139°41'0 0.0
2018-Apr-11 17:30N 35°26' E 139°41'0 0.0
2018-Apr-11 17:00N 35°26' E 139°41'0 0.0
2018-Apr-11 16:30N 35°26' E 139°41'0 0.0
2018-Apr-11 16:00N 35°26' E 139°41'0 0.0
2018-Apr-11 15:30N 35°26' E 139°41'0 0.0
2018-Apr-11 15:00N 35°26' E 139°41'0 0.0
2018-Apr-11 14:30N 35°26' E 139°41'0 0.0
2018-Apr-11 14:00N 35°26' E 139°41'0 0.0
2018-Apr-11 13:30N 35°26' E 139°41'0 0.0
2018-Apr-11 13:00N 35°26' E 139°41'0 0.0
2018-Apr-11 12:30N 35°26' E 139°41'0 0.0
2018-Apr-11 12:00N 35°26' E 139°41'0 0.0
2018-Apr-11 11:30N 35°26' E 139°41'0 0.0
2018-Apr-11 11:00N 35°26' E 139°41'0 0.0
2018-Apr-11 10:30N 35°26' E 139°41'0 0.0
2018-Apr-11 10:00N 35°26' E 139°41'0 0.0
2018-Apr-11 09:30N 35°26' E 139°41'0 0.0
2018-Apr-11 09:00N 35°26' E 139°41'0 0.0
2018-Apr-11 08:30N 35°26' E 139°41'0 0.0
2018-Apr-11 08:00N 35°26' E 139°41'0 0.0
2018-Apr-11 07:30N 35°26' E 139°41'0 0.0
2018-Apr-11 07:00N 35°26' E 139°41'0 0.0
2018-Apr-11 06:30N 35°26' E 139°41'0 0.0
2018-Apr-11 06:00N 35°26' E 139°41'0 0.0
2018-Apr-11 05:30N 35°26' E 139°41'0 0.0
2018-Apr-11 05:00N 35°26' E 139°41'0 0.0
2018-Apr-11 04:30N 35°26' E 139°41'0 0.2
2018-Apr-11 04:00N 35°26' E 139°41'2 4.2
2018-Apr-11 03:30N 35°27' E 139°44'1 2.3
2018-Apr-11 03:00N 35°27' E 139°45'0 0.1
2018-Apr-11 02:30N 35°27' E 139°45'0 0.0
2018-Apr-11 02:00N 35°27' E 139°45'0 0.1
2018-Apr-11 01:30N 35°27' E 139°45'0 0.1
2018-Apr-11 01:00N 35°27' E 139°45'0 0.0
2018-Apr-11 00:30N 35°27' E 139°45'0 0.0
2018-Apr-11 00:00N 35°27' E 139°45'0 0.0
2018-Apr-10 23:30N 35°27' E 139°45'0 0.1
2018-Apr-10 23:00N 35°27' E 139°45'0 0.1
2018-Apr-10 22:30N 35°27' E 139°45'1 1.4
2018-Apr-10 22:00N 35°27' E 139°46'4 7.4
2018-Apr-10 21:30N 35°29' E 139°50'5 9.6
2018-Apr-10 21:00N 35°34' E 139°49'3 6.6
2018-Apr-10 20:30N 35°36' E 139°47'0 0.4
2018-Apr-10 20:00N 35°36' E 139°47'0 0.0
2018-Apr-10 19:30N 35°36' E 139°47'0 0.0
2018-Apr-10 19:00N 35°36' E 139°47'0 0.0
2018-Apr-10 18:30N 35°36' E 139°47'0 0.0
2018-Apr-10 18:00N 35°36' E 139°47'0 0.0
2018-Apr-10 17:30N 35°36' E 139°47'0 0.0
2018-Apr-10 17:00N 35°36' E 139°47'0 0.0
2018-Apr-10 16:30N 35°36' E 139°47'0 0.0
2018-Apr-10 16:00N 35°36' E 139°47'0 0.0
2018-Apr-10 15:30N 35°36' E 139°47'0 0.0
2018-Apr-10 15:00N 35°36' E 139°47'0 0.0
2018-Apr-10 14:30N 35°36' E 139°47'0 0.0
2018-Apr-10 14:00N 35°36' E 139°47'0 0.0
2018-Apr-10 13:30N 35°36' E 139°47'0 0.0
2018-Apr-10 13:00N 35°36' E 139°47'0 0.0
2018-Apr-10 12:30N 35°36' E 139°47'0 0.0
2018-Apr-10 12:00N 35°36' E 139°47'0 0.0
2018-Apr-10 11:30N 35°36' E 139°47'0 0.0
2018-Apr-10 11:00N 35°36' E 139°47'0 0.0
2018-Apr-10 10:30N 35°36' E 139°47'0 0.0
2018-Apr-10 10:00N 35°36' E 139°47'0 0.0
2018-Apr-10 09:30N 35°36' E 139°47'0 0.0
2018-Apr-10 09:00N 35°36' E 139°47'0 0.0
2018-Apr-10 08:30N 35°36' E 139°47'0 0.0
2018-Apr-10 08:00N 35°36' E 139°47'0 0.0
2018-Apr-10 07:30N 35°36' E 139°47'0 0.0
2018-Apr-10 07:00N 35°36' E 139°47'0 0.0
2018-Apr-10 06:30N 35°36' E 139°47'0 0.0
2018-Apr-10 06:00N 35°36' E 139°47'0 0.0
2018-Apr-10 05:30N 35°36' E 139°47'0 0.0
2018-Apr-10 05:00N 35°36' E 139°47'0 0.0
2018-Apr-10 04:30N 35°36' E 139°47'0 0.0
2018-Apr-10 04:00N 35°36' E 139°47'0 0.0
2018-Apr-10 03:30N 35°36' E 139°47'0 0.0
2018-Apr-10 03:00N 35°36' E 139°47'0 0.0
2018-Apr-10 02:29N 35°36' E 139°47'0 0.0
2018-Apr-10 02:00N 35°36' E 139°47'0 0.0
2018-Apr-10 01:30N 35°36' E 139°47'0 0.0
2018-Apr-10 01:00N 35°36' E 139°47'0 0.0
2018-Apr-10 00:30N 35°36' E 139°47'0 0.0
2018-Apr-10 00:00N 35°36' E 139°47'0 0.0
2018-Apr-09 23:30N 35°36' E 139°47'0 0.0
2018-Apr-09 23:00N 35°36' E 139°47'0 0.1
2018-Apr-09 22:30N 35°36' E 139°47'2 3.4
2018-Apr-09 22:00N 35°35' E 139°48'510.7
2018-Apr-09 21:31N 35°31' E 139°53'510.9
2018-Apr-09 21:00N 35°26' E 139°49'612.6
2018-Apr-09 20:30N 35°21' E 139°45'510.5
2018-Apr-09 20:00N 35°16' E 139°46'611.6
2018-Apr-09 19:30N 35°10' E 139°47'3 6.4
2018-Apr-09 19:00N 35°07' E 139°46'3 6.3
2018-Apr-09 18:31N 35°04' E 139°44'4 7.6
2018-Apr-09 18:01N 35°02' E 139°40'4 8.1
2018-Apr-09 17:30N 34°59' E 139°36'4 7.4
2018-Apr-09 17:00N 34°57' E 139°33'4 8.4
2018-Apr-09 16:30N 34°54' E 139°29'4 7.9
2018-Apr-09 15:59N 34°52' E 139°25'4 8.7
2018-Apr-09 15:30N 34°50' E 139°20'5 9.9
2018-Apr-09 15:00N 34°46' E 139°17'710.8
2018-Apr-09 14:20N 34°40' E 139°11'411.6
2018-Apr-09 14:00N 34°37' E 139°08'612.9
2018-Apr-09 13:30N 34°33' E 139°03'612.8
2018-Apr-09 13:00N 34°29' E 138°57'612.3
2018-Apr-09 12:30N 34°25' E 138°51'612.3
2018-Apr-09 12:00N 34°22' E 138°45'612.8
2018-Apr-09 11:30N 34°19' E 138°38'712.6
2018-Apr-09 10:57N 34°16' E 138°30'612.6
2018-Apr-09 10:30N 34°13' E 138°24'711.9
2018-Apr-09 09:57N 34°10' E 138°17'611.3
2018-Apr-09 09:24N 34°07' E 138°11'511.2
2018-Apr-09 08:56N 34°05' E 138°05'92418.2
2018-Apr-07 06:06N 25°16' E 123°34'217.6
2018-Apr-07 06:00N 25°14' E 123°33'917.5
2018-Apr-07 05:31N 25°08' E 123°26'917.3
2018-Apr-07 05:00N 25°02' E 123°19'917.5
2018-Apr-07 04:31N 24°56' E 123°12'917.3
2018-Apr-07 04:00N 24°49' E 123°06'917.5
2018-Apr-07 03:31N 24°43' E 122°59'917.9
2018-Apr-07 03:01N 24°37' E 122°52'917.4
2018-Apr-07 02:30N 24°30' E 122°46'816.7
2018-Apr-07 02:00N 24°24' E 122°39'816.9
2018-Apr-07 01:31N 24°19' E 122°32'817.0
2018-Apr-07 01:01N 24°12' E 122°26'816.6
2018-Apr-07 00:31N 24°06' E 122°20'916.9
2018-Apr-07 00:00N 23°60' E 122°14'4813.5
2018-Apr-06 20:25N 23°17' E 121°49'713.3
2018-Apr-06 19:52N 23°13' E 121°42'3510.4
2018-Apr-06 16:29N 22°43' E 121°22'911.9
2018-Apr-06 15:44N 22°35' E 121°18'415.4
2018-Apr-06 15:28N 22°31' E 121°17'2217.2
2018-Apr-06 14:11N 22°10' E 121°10'517.9
2018-Apr-06 13:54N 22°05' E 121°09'  

Dump ship's entire track history